Time;durP1;ratioP1;P1;durP2;ratioP2;P2;SDS_P1;SDS_P2;PMS_P1;PMS_P2;Temp;Humidity;BMP_temperature;BMP_pressure;BME280_temperature;BME280_humidity;BME280_pressure;Samples;Min_cycle;Max_cycle;Signal;HPM_P1;HPM_P2
2023/05/06 00:00:11;;;;;;;9.73;2.60;;;19.10;89.00;;;;;;7403925;19;20007;-75
2023/05/06 00:02:40;;;;;;;;;;;19.10;89.30;;;;;;7382117;19;20080;-74
2023/05/06 00:05:10;;;;;;;15.27;2.83;;;19.00;89.90;;;;;;7381142;19;19911;-74
2023/05/06 00:07:38;;;;;;;10.75;2.20;;;19.00;89.20;;;;;;7381270;19;20062;-74
2023/05/06 00:10:11;;;;;;;7.25;3.08;;;18.90;89.30;;;;;;7380956;19;20082;-75
2023/05/06 00:12:39;;;;;;;11.05;3.55;;;18.80;89.20;;;;;;7380578;19;20020;-74
2023/05/06 00:15:09;;;;;;;9.68;2.90;;;18.90;89.40;;;;;;7403200;19;20460;-75
2023/05/06 00:17:38;;;;;;;8.90;3.08;;;18.90;89.30;;;;;;7381016;19;20015;-74
2023/05/06 00:20:09;;;;;;;5.38;2.78;;;18.80;89.10;;;;;;7380943;19;20071;-74
2023/05/06 00:22:37;;;;;;;7.93;2.80;;;18.80;88.90;;;;;;7385165;19;20009;-74
2023/05/06 00:25:07;;;;;;;7.20;2.33;;;18.80;89.40;;;;;;7381277;19;20021;-75
2023/05/06 00:27:38;;;;;;;11.43;2.85;;;18.70;89.60;;;;;;7382036;19;20010;-74
2023/05/06 00:30:08;;;;;;;7.18;2.72;;;18.70;89.40;;;;;;7403593;19;20010;-74
2023/05/06 00:32:37;;;;;;;12.80;3.88;;;18.70;88.90;;;;;;7381445;19;20409;-74
2023/05/06 00:35:06;;;;;;;12.48;3.70;;;18.70;89.40;;;;;;7381712;19;20007;-74
2023/05/06 00:37:36;;;;;;;15.40;3.30;;;18.70;89.60;;;;;;7387747;19;20003;-73
2023/05/06 00:40:05;;;;;;;6.07;2.97;;;18.60;89.70;;;;;;7390552;19;20027;-73
2023/05/06 00:42:34;;;;;;;11.57;2.97;;;18.60;89.60;;;;;;7393178;19;20357;-73
2023/05/06 00:45:07;;;;;;;7.95;2.80;;;18.60;89.40;;;;;;7413659;19;20014;-75
2023/05/06 00:47:36;;;;;;;6.00;2.30;;;18.60;88.80;;;;;;7392306;19;20256;-73
2023/05/06 00:50:05;;;;;;;4.95;2.08;;;18.50;88.90;;;;;;7389437;19;20062;-74
2023/05/06 00:52:34;;;;;;;4.75;2.30;;;18.50;89.20;;;;;;7392418;19;20007;-74
2023/05/06 00:55:03;;;;;;;3.67;2.08;;;18.50;88.80;;;;;;7382093;19;20058;-74
2023/05/06 00:57:32;;;;;;;3.10;1.90;;;18.50;89.00;;;;;;7384961;19;20017;-74
2023/05/06 01:00:00;;;;;;;4.60;2.05;;;18.50;88.70;;;;;;7405394;19;20023;-74
2023/05/06 01:02:32;;;;;;;4.88;2.42;;;18.50;89.10;;;;;;7383705;19;20024;-74
2023/05/06 01:05:02;;;;;;;5.15;2.42;;;18.50;88.60;;;;;;7380264;19;20024;-74
2023/05/06 01:07:37;;;;;;;4.97;1.90;;;18.50;88.70;;;;;;7379751;19;20397;-75
2023/05/06 01:10:12;;;;;;;4.30;1.83;;;18.50;88.50;;;;;;7380430;19;20019;-74
2023/05/06 01:12:46;;;;;;;7.22;2.00;;;18.40;88.50;;;;;;7380388;19;20018;-74
2023/05/06 01:15:18;;;;;;;2.47;2.10;;;18.40;88.40;;;;;;7402168;19;20022;-74
2023/05/06 01:17:53;;;;;;;9.80;2.25;;;18.40;88.50;;;;;;7379974;19;20007;-75
2023/05/06 01:20:24;;;;;;;3.72;2.28;;;18.30;88.80;;;;;;7380156;19;20251;-74
2023/05/06 01:22:53;;;;;;;4.82;2.00;;;18.30;88.60;;;;;;7381006;19;20007;-75
2023/05/06 01:25:29;;;;;;;2.22;1.80;;;18.30;88.30;;;;;;7387054;19;20003;-75
2023/05/06 01:27:57;;;;;;;3.47;1.60;;;18.30;88.10;;;;;;7387313;19;20034;-75
2023/05/06 01:30:31;;;;;;;4.38;1.80;;;18.20;88.00;;;;;;7387894;19;20386;-75
2023/05/06 01:33:06;;;;;;;3.65;1.52;;;18.20;88.30;;;;;;7409112;19;20007;-75
2023/05/06 01:35:42;;;;;;;2.83;1.50;;;18.20;89.60;;;;;;7386384;19;20011;-75
2023/05/06 01:38:20;;;;;;;5.43;1.70;;;18.20;88.70;;;;;;7386456;19;20013;-74
2023/05/06 01:40:56;;;;;;;4.25;1.83;;;18.20;89.20;;;;;;7385484;19;20010;-74
2023/05/06 01:43:29;;;;;;;7.95;1.60;;;18.20;88.50;;;;;;7386978;19;20016;-75
2023/05/06 01:45:59;;;;;;;6.28;1.50;;;18.20;88.50;;;;;;7385771;19;20011;-74
2023/05/06 01:48:30;;;;;;;4.95;1.58;;;18.20;88.90;;;;;;7389050;19;20487;-74
2023/05/06 01:50:59;;;;;;;5.97;1.75;;;18.20;88.70;;;;;;7408224;19;20006;-74
2023/05/06 01:53:27;;;;;;;4.85;1.60;;;18.10;88.90;;;;;;7385542;19;20073;-74
2023/05/06 01:55:59;;;;;;;5.47;1.70;;;18.10;89.00;;;;;;7387897;19;20015;-74
2023/05/06 01:58:27;;;;;;;5.07;1.65;;;18.20;89.10;;;;;;7386415;19;20019;-75
2023/05/06 02:00:56;;;;;;;3.10;1.60;;;18.20;89.30;;;;;;7385991;19;20007;-75
2023/05/06 02:03:25;;;;;;;9.38;2.00;;;18.20;89.10;;;;;;7383588;19;20018;-75
2023/05/06 02:05:54;;;;;;;6.18;2.05;;;18.20;89.20;;;;;;7408998;19;20035;-75
2023/05/06 02:08:23;;;;;;;3.72;1.73;;;18.20;89.10;;;;;;7385077;19;20370;-75
2023/05/06 02:10:51;;;;;;;5.28;2.10;;;18.30;88.90;;;;;;7384610;19;20010;-75
2023/05/06 02:13:23;;;;;;;6.43;1.83;;;18.30;88.90;;;;;;7384606;19;20041;-74
2023/05/06 02:15:55;;;;;;;4.15;1.90;;;18.30;88.70;;;;;;7385578;19;20002;-73
2023/05/06 02:18:24;;;;;;;7.45;1.85;;;18.30;88.90;;;;;;7385908;19;20007;-73
2023/05/06 02:20:52;;;;;;;4.47;1.70;;;18.20;88.80;;;;;;7407348;19;20011;-74
2023/05/06 02:23:21;;;;;;;5.15;1.40;;;18.20;89.20;;;;;;7384741;19;19999;-74
2023/05/06 02:25:50;;;;;;;3.50;1.88;;;18.20;89.20;;;;;;7383883;19;20019;-74
2023/05/06 02:28:19;;;;;;;5.85;2.33;;;18.20;89.10;;;;;;7385498;19;20006;-74
2023/05/06 02:30:50;;;;;;;5.32;2.45;;;18.20;89.20;;;;;;7385007;19;20007;-74
2023/05/06 02:33:20;;;;;;;7.65;2.88;;;18.20;88.90;;;;;;7384604;19;20232;-74
2023/05/06 02:35:49;;;;;;;7.88;2.83;;;18.20;88.90;;;;;;7405518;19;20074;-74
2023/05/06 02:38:18;;;;;;;4.10;2.97;;;18.20;89.10;;;;;;7385285;19;20237;-74
2023/05/06 02:40:46;;;;;;;6.50;2.75;;;18.20;88.90;;;;;;7385893;19;20023;-74
2023/05/06 02:43:15;;;;;;;7.25;2.33;;;18.20;90.00;;;;;;7385158;19;20007;-74
2023/05/06 02:45:44;;;;;;;3.65;1.85;;;18.10;89.40;;;;;;7382350;19;20297;-74
2023/05/06 02:48:15;;;;;;;2.58;2.10;;;18.10;89.50;;;;;;7405661;19;20011;-74
2023/05/06 02:50:44;;;;;;;10.35;2.35;;;18.20;89.50;;;;;;7384156;19;20331;-74
2023/05/06 02:53:12;;;;;;;10.07;1.92;;;18.20;89.70;;;;;;7383895;19;20011;-74
2023/05/06 02:55:41;;;;;;;5.30;2.03;;;18.20;89.60;;;;;;7386037;19;20019;-74
2023/05/06 02:58:10;;;;;;;3.17;1.83;;;18.30;89.40;;;;;;7384828;19;20058;-74
2023/05/06 03:00:38;;;;;;;6.53;2.22;;;18.30;88.90;;;;;;7385447;19;20073;-74
2023/05/06 03:03:07;;;;;;;5.30;1.80;;;18.30;89.10;;;;;;7406154;19;20011;-74
2023/05/06 03:05:41;;;;;;;9.48;2.33;;;18.20;89.10;;;;;;7384555;19;20032;-74
2023/05/06 03:08:10;;;;;;;8.20;2.10;;;18.20;89.20;;;;;;7383372;19;20003;-73
2023/05/06 03:10:38;;;;;;;5.00;1.92;;;18.20;89.10;;;;;;7383304;19;20074;-74
2023/05/06 03:13:07;;;;;;;6.40;2.30;;;18.20;89.40;;;;;;7385769;19;19999;-74
2023/05/06 03:15:36;;;;;;;5.57;2.10;;;18.20;89.50;;;;;;7384490;19;20020;-74
2023/05/06 03:18:05;;;;;;;4.07;2.00;;;18.20;89.80;;;;;;7404990;19;20003;-74
2023/05/06 03:20:33;;;;;;;3.25;1.90;;;18.20;90.20;;;;;;7384116;19;20010;-74
2023/05/06 03:23:04;;;;;;;5.55;2.00;;;18.20;90.00;;;;;;7382552;19;20365;-73
2023/05/06 03:25:33;;;;;;;8.15;3.08;;;18.20;89.80;;;;;;7383322;19;20015;-74
2023/05/06 03:28:02;;;;;;;4.40;2.00;;;18.20;89.80;;;;;;7382525;19;20007;-74
2023/05/06 03:30:30;;;;;;;6.80;2.25;;;18.20;90.00;;;;;;7384431;19;20247;-74
2023/05/06 03:33:01;;;;;;;3.88;1.92;;;18.20;90.00;;;;;;7404570;19;20023;-74
2023/05/06 03:35:30;;;;;;;4.18;2.38;;;18.10;89.70;;;;;;7383476;19;20003;-74
2023/05/06 03:37:59;;;;;;;3.22;1.95;;;18.10;89.30;;;;;;7390684;19;20010;-73
2023/05/06 03:40:30;;;;;;;3.70;2.30;;;18.10;89.30;;;;;;7388387;19;20006;-74
2023/05/06 03:42:59;;;;;;;;;;;18.10;89.80;;;;;;7383267;19;20034;-75
2023/05/06 03:45:29;;;;;;;11.00;2.15;;;18.10;90.00;;;;;;7382397;19;19956;-75
2023/05/06 03:47:57;;;;;;;4.07;2.13;;;18.10;90.30;;;;;;7405146;19;20541;-75
2023/05/06 03:50:26;;;;;;;7.97;2.45;;;18.10;89.80;;;;;;7382172;19;20006;-74
2023/05/06 03:52:55;;;;;;;3.53;2.10;;;18.10;90.00;;;;;;7381811;19;20019;-75
2023/05/06 03:55:24;;;;;;;8.77;3.08;;;18.10;89.70;;;;;;7383824;19;20011;-76
2023/05/06 03:57:55;;;;;;;7.82;2.88;;;18.00;89.90;;;;;;7383179;19;20027;-74
2023/05/06 04:00:24;;;;;;;5.30;2.92;;;18.00;90.00;;;;;;7381725;19;20414;-74
2023/05/06 04:02:52;;;;;;;5.55;2.78;;;18.00;90.00;;;;;;7404255;19;20250;-74
2023/05/06 04:05:21;;;;;;;7.88;2.83;;;18.00;90.00;;;;;;7381516;19;20010;-74
2023/05/06 04:07:50;;;;;;;14.93;2.42;;;18.00;89.90;;;;;;7381602;19;20020;-75
2023/05/06 04:10:19;;;;;;;10.18;2.42;;;18.00;89.70;;;;;;7381956;19;20003;-74
2023/05/06 04:12:47;;;;;;;7.25;2.50;;;18.00;89.60;;;;;;7381822;19;20024;-75
2023/05/06 04:15:19;;;;;;;3.90;2.40;;;17.90;90.00;;;;;;7400303;19;20014;-74
2023/05/06 04:17:48;;;;;;;7.50;2.20;;;17.90;89.90;;;;;;7402619;19;20353;-74
2023/05/06 04:20:17;;;;;;;6.30;2.28;;;17.90;90.00;;;;;;7382402;19;20020;-75
2023/05/06 04:22:45;;;;;;;3.83;2.55;;;17.80;90.20;;;;;;7383178;19;19999;-74
2023/05/06 04:25:15;;;;;;;6.57;2.30;;;17.80;90.20;;;;;;7381947;19;20429;-75
2023/05/06 04:27:43;;;;;;;4.82;2.35;;;17.80;90.20;;;;;;7380819;19;20369;-75
2023/05/06 04:30:13;;;;;;;7.68;2.70;;;17.80;90.20;;;;;;7402904;19;20028;-75
2023/05/06 04:32:45;;;;;;;4.68;2.13;;;17.80;90.30;;;;;;7381480;19;20081;-74
2023/05/06 04:35:14;;;;;;;6.80;2.08;;;17.80;90.20;;;;;;7381082;19;20007;-74
2023/05/06 04:37:43;;;;;;;12.95;2.70;;;17.80;90.20;;;;;;7382616;19;20027;-74
2023/05/06 04:40:13;;;;;;;5.22;2.20;;;17.80;90.30;;;;;;7379680;19;20014;-74
2023/05/06 04:42:42;;;;;;;5.72;2.50;;;17.90;90.40;;;;;;7381664;19;20003;-74
2023/05/06 04:45:12;;;;;;;6.45;3.20;;;17.90;90.30;;;;;;7402764;19;20031;-74
2023/05/06 04:47:44;;;;;;;5.72;2.75;;;17.90;90.40;;;;;;7379190;19;20003;-74
2023/05/06 04:50:13;;;;;;;6.22;3.00;;;17.90;90.40;;;;;;7380401;19;20054;-74
2023/05/06 04:52:42;;;;;;;5.93;3.08;;;17.90;90.50;;;;;;7380373;19;20060;-74
2023/05/06 04:55:11;;;;;;;9.43;3.30;;;17.90;90.50;;;;;;7381726;19;20003;-74
2023/05/06 04:57:40;;;;;;;12.40;3.05;;;17.90;90.60;;;;;;7381341;19;20010;-75
2023/05/06 05:00:10;;;;;;;8.40;3.22;;;18.00;90.60;;;;;;7409717;19;20007;-74
2023/05/06 05:02:39;;;;;;;11.70;2.67;;;17.90;90.70;;;;;;7387538;19;20006;-74
2023/05/06 05:05:11;;;;;;;7.07;2.60;;;18.00;90.90;;;;;;7387745;19;20011;-76
2023/05/06 05:07:39;;;;;;;8.20;2.60;;;18.00;90.80;;;;;;7386561;19;20024;-73
2023/05/06 05:10:10;;;;;;;6.95;2.75;;;18.00;90.90;;;;;;7387980;19;20015;-73
2023/05/06 05:12:38;;;;;;;5.55;2.75;;;18.00;90.70;;;;;;7391853;19;20402;-73
2023/05/06 05:15:08;;;;;;;6.03;2.90;;;18.00;90.60;;;;;;7409580;19;20070;-73
2023/05/06 05:17:37;;;;;;;8.05;2.60;;;18.10;90.80;;;;;;7388035;19;20015;-73
2023/05/06 05:20:07;;;;;;;5.75;2.63;;;18.10;90.90;;;;;;7387318;19;20422;-74
2023/05/06 05:22:38;;;;;;;4.93;2.45;;;18.10;90.90;;;;;;7387634;19;20005;-73
2023/05/06 05:25:09;;;;;;;7.03;2.90;;;18.10;91.10;;;;;;7387333;19;20006;-73
2023/05/06 05:27:37;;;;;;;9.32;2.35;;;18.20;91.00;;;;;;7387255;19;20013;-74
2023/05/06 05:30:08;;;;;;;19.45;3.22;;;18.20;91.00;;;;;;7413109;19;20015;-74
2023/05/06 05:32:36;;;;;;;4.88;2.58;;;18.20;90.80;;;;;;7386307;19;20024;-74
2023/05/06 05:35:06;;;;;;;3.78;2.40;;;18.20;90.80;;;;;;7388116;19;20007;-75
2023/05/06 05:37:34;;;;;;;5.22;2.80;;;18.20;91.00;;;;;;7385707;19;20018;-74
2023/05/06 05:40:07;;;;;;;3.80;2.35;;;18.20;90.90;;;;;;7384384;19;20006;-74
2023/05/06 05:42:36;;;;;;;4.32;2.58;;;18.30;91.00;;;;;;7387169;19;20027;-74
2023/05/06 05:45:05;;;;;;;3.67;2.40;;;18.30;91.00;;;;;;7408238;19;20303;-74
2023/05/06 05:47:33;;;;;;;9.90;2.63;;;18.30;91.00;;;;;;7385035;19;20023;-74
2023/05/06 05:50:02;;;;;;;4.25;2.72;;;18.40;91.00;;;;;;7386175;19;20007;-73
2023/05/06 05:52:31;;;;;;;4.80;2.75;;;18.40;91.10;;;;;;7384972;19;20015;-74
2023/05/06 05:55:00;;;;;;;11.25;3.13;;;18.50;91.00;;;;;;7385933;19;20027;-73
2023/05/06 05:57:31;;;;;;;9.52;3.25;;;18.50;91.00;;;;;;7386545;19;20015;-73
2023/05/06 06:00:00;;;;;;;4.97;2.53;;;18.50;90.90;;;;;;7404671;19;20215;-73
2023/05/06 06:02:28;;;;;;;6.05;3.33;;;18.60;91.10;;;;;;7386650;19;20019;-73
2023/05/06 06:04:57;;;;;;;6.38;4.20;;;18.60;91.20;;;;;;7386233;19;20003;-74
2023/05/06 06:07:26;;;;;;;13.55;3.95;;;18.70;91.20;;;;;;7385561;19;19998;-74
2023/05/06 06:09:54;;;;;;;13.68;4.32;;;18.70;91.20;;;;;;7382341;19;20046;-73
2023/05/06 06:12:25;;;;;;;9.90;4.63;;;18.70;91.30;;;;;;7386040;19;20027;-74
2023/05/06 06:14:56;;;;;;;14.35;5.00;;;18.80;91.30;;;;;;7406855;19;20031;-74
2023/05/06 06:17:25;;;;;;;13.80;6.20;;;18.80;91.40;;;;;;7384864;19;20015;-74
2023/05/06 06:19:56;;;;;;;11.30;5.47;;;18.90;91.50;;;;;;7387528;19;20006;-74
2023/05/06 06:22:25;;;;;;;13.70;4.63;;;18.90;91.60;;;;;;7385668;19;20454;-73
2023/05/06 06:24:55;;;;;;;14.10;4.72;;;18.90;91.60;;;;;;7383980;19;20670;-74
2023/05/06 06:27:23;;;;;;;9.63;4.03;;;19.00;91.70;;;;;;7383948;19;20066;-74
2023/05/06 06:29:52;;;;;;;8.48;4.80;;;19.00;91.70;;;;;;7409043;19;20361;-75
2023/05/06 06:32:23;;;;;;;11.48;4.50;;;19.10;91.60;;;;;;7384231;19;20011;-73
2023/05/06 06:34:52;;;;;;;12.07;4.55;;;19.10;91.60;;;;;;7385533;19;20063;-74
2023/05/06 06:37:20;;;;;;;7.78;4.65;;;19.20;91.60;;;;;;7387153;19;20071;-75
2023/05/06 06:39:49;;;;;;;11.90;4.50;;;19.30;91.60;;;;;;7384766;19;20010;-74
2023/05/06 06:42:18;;;;;;;9.80;4.38;;;19.30;91.40;;;;;;7389709;19;20043;-73
2023/05/06 06:44:46;;;;;;;14.00;4.65;;;19.40;91.50;;;;;;7406473;19;20015;-74
2023/05/06 06:47:15;;;;;;;12.23;4.97;;;19.50;91.60;;;;;;7383807;19;20289;-74
2023/05/06 06:49:46;;;;;;;8.48;4.55;;;19.50;91.50;;;;;;7384577;19;20369;-74
2023/05/06 06:52:15;;;;;;;12.23;5.13;;;19.60;91.30;;;;;;7384043;19;20377;-74
2023/05/06 06:54:44;;;;;;;10.05;4.70;;;19.70;91.10;;;;;;7386814;19;20031;-74
2023/05/06 06:57:13;;;;;;;13.73;5.28;;;19.70;91.00;;;;;;7404091;19;20014;-74
2023/05/06 06:59:42;;;;;;;14.82;4.82;;;19.80;91.00;;;;;;7383762;19;20007;-74
2023/05/06 07:02:10;;;;;;;13.32;4.78;;;19.80;91.10;;;;;;7384069;19;20006;-74
2023/05/06 07:04:39;;;;;;;14.43;5.60;;;19.90;91.10;;;;;;7385506;19;20069;-74
2023/05/06 07:07:10;;;;;;;14.32;6.68;;;19.90;91.10;;;;;;7388397;19;20009;-74
2023/05/06 07:09:39;;;;;;;;;;;19.90;91.10;;;;;;7388081;19;20010;-74
2023/05/06 07:12:08;;;;;;;15.32;6.97;;;20.00;91.20;;;;;;7410143;19;19914;-74
2023/05/06 07:14:37;;;;;;;8.45;5.53;;;20.00;91.00;;;;;;7382839;19;20003;-74
2023/05/06 07:17:05;;;;;;;10.68;5.53;;;20.00;91.10;;;;;;7382802;19;20006;-74
2023/05/06 07:19:34;;;;;;;12.38;5.72;;;20.00;91.10;;;;;;7383462;19;20086;-73
2023/05/06 07:22:04;;;;;;;14.30;6.03;;;20.10;91.30;;;;;;7383373;19;20039;-73
2023/05/06 07:24:35;;;;;;;11.48;5.68;;;20.10;91.40;;;;;;7381570;19;20010;-73
2023/05/06 07:27:04;;;;;;;14.00;5.97;;;20.10;91.50;;;;;;7405300;19;20016;-74
2023/05/06 07:29:33;;;;;;;9.55;5.90;;;20.20;91.50;;;;;;7382247;19;20252;-73
2023/05/06 07:32:02;;;;;;;11.52;6.18;;;20.20;91.20;;;;;;7382407;19;20074;-74
2023/05/06 07:34:32;;;;;;;14.05;6.32;;;20.20;91.20;;;;;;7383513;19;20070;-74
2023/05/06 07:37:02;;;;;;;15.97;6.40;;;20.30;91.20;;;;;;7383343;19;20030;-73
2023/05/06 07:39:31;;;;;;;16.30;5.45;;;20.30;91.20;;;;;;7382010;19;20260;-74
2023/05/06 07:42:03;;;;;;;20.83;6.18;;;20.30;91.20;;;;;;7404474;19;20062;-74
2023/05/06 07:44:35;;;;;;;12.52;5.85;;;20.40;91.40;;;;;;7381970;19;20003;-74
2023/05/06 07:47:04;;;;;;;13.52;5.72;;;20.40;91.30;;;;;;7383214;19;20232;-73
2023/05/06 07:49:34;;;;;;;12.50;5.47;;;20.50;91.50;;;;;;7383056;19;20006;-73
2023/05/06 07:52:03;;;;;;;16.48;5.63;;;20.50;91.50;;;;;;7383686;19;20007;-73
2023/05/06 07:54:31;;;;;;;8.57;5.15;;;20.60;91.50;;;;;;7383423;19;20036;-73
2023/05/06 07:57:03;;;;;;;8.32;5.03;;;20.60;91.50;;;;;;7405085;19;20362;-73
2023/05/06 07:59:31;;;;;;;;;;;20.70;91.60;;;;;;7382987;19;20056;-73
2023/05/06 08:02:00;;;;;;;17.98;4.93;;;20.80;91.60;;;;;;7381964;19;19907;-73
2023/05/06 08:04:28;;;;;;;16.27;4.68;;;20.80;91.40;;;;;;7381972;19;20405;-73
2023/05/06 08:06:57;;;;;;;11.88;4.40;;;20.90;91.30;;;;;;7381738;19;20007;-73
2023/05/06 08:09:26;;;;;;;14.82;4.68;;;20.90;91.10;;;;;;7380225;19;20023;-74
2023/05/06 08:11:55;;;;;;;15.30;4.32;;;20.90;91.10;;;;;;7401397;19;20019;-73
2023/05/06 08:14:27;;;;;;;11.85;4.68;;;21.00;91.10;;;;;;7380740;19;20011;-73
2023/05/06 08:16:57;;;;;;;11.60;4.57;;;21.00;91.20;;;;;;7380819;19;20011;-75
2023/05/06 08:19:26;;;;;;;14.00;4.30;;;21.00;91.30;;;;;;7381719;19;20019;-74
2023/05/06 08:21:55;;;;;;;10.23;4.78;;;21.10;91.10;;;;;;7381267;19;20006;-75
2023/05/06 08:24:24;;;;;;;16.55;4.82;;;21.10;91.10;;;;;;7381250;19;20002;-75
2023/05/06 08:26:52;;;;;;;12.57;5.05;;;21.10;91.20;;;;;;7407125;19;20015;-77
2023/05/06 08:29:21;;;;;;;8.88;4.63;;;21.10;91.30;;;;;;7380131;19;20010;-75
2023/05/06 08:31:52;;;;;;;14.00;5.10;;;21.20;91.30;;;;;;7379543;19;20365;-75
2023/05/06 08:34:21;;;;;;;;;;;21.10;91.20;;;;;;7382197;19;20074;-76
2023/05/06 08:36:52;;;;;;;11.88;4.32;;;21.20;91.20;;;;;;7381422;19;19918;-78
2023/05/06 08:39:20;;;;;;;;;;;21.30;91.00;;;;;;7382590;19;20015;-75
2023/05/06 08:41:51;;;;;;;11.50;4.07;;;21.30;90.80;;;;;;7403115;19;19915;-74
2023/05/06 08:44:22;;;;;;;8.30;4.35;;;21.30;90.60;;;;;;7380943;19;20023;-73
2023/05/06 08:46:53;;;;;;;13.52;4.05;;;21.30;90.70;;;;;;7381319;19;20006;-73
2023/05/06 08:49:22;;;;;;;;;;;21.40;90.50;;;;;;7381404;19;20006;-77
2023/05/06 08:51:52;;;;;;;10.80;3.53;;;21.40;90.40;;;;;;7380221;19;19907;-75
2023/05/06 08:54:23;;;;;;;18.60;4.43;;;21.40;90.40;;;;;;7401968;19;20006;-73
2023/05/06 08:56:55;;;;;;;12.00;4.30;;;21.40;90.40;;;;;;7380219;19;20066;-72
2023/05/06 08:59:29;;;;;;;11.80;4.10;;;21.40;90.50;;;;;;7381658;19;20402;-74
2023/05/06 09:02:01;;;;;;;12.60;3.90;;;21.40;90.70;;;;;;7381816;19;20108;-74
2023/05/06 09:04:30;;;;;;;14.80;3.55;;;21.50;90.60;;;;;;7381687;19;20382;-73
2023/05/06 09:07:00;;;;;;;14.90;4.03;;;21.50;90.60;;;;;;7380748;19;20252;-74
2023/05/06 09:09:29;;;;;;;7.57;3.70;;;21.50;90.30;;;;;;7401791;19;20007;-75
2023/05/06 09:11:57;;;;;;;9.77;3.60;;;21.50;90.20;;;;;;7380545;19;20046;-72
2023/05/06 09:14:26;;;;;;;10.23;3.70;;;21.50;90.70;;;;;;7380075;19;20062;-74
2023/05/06 09:16:55;;;;;;;10.23;3.45;;;21.60;90.30;;;;;;7380002;19;20047;-73
2023/05/06 09:19:26;;;;;;;12.48;3.63;;;21.60;90.20;;;;;;7379959;19;20003;-75
2023/05/06 09:21:55;;;;;;;;;;;21.60;89.40;;;;;;7382195;19;20192;-75
2023/05/06 09:24:24;;;;;;;13.23;3.65;;;21.70;89.80;;;;;;7401912;19;19915;-74
2023/05/06 09:26:54;;;;;;;15.07;3.42;;;21.70;89.10;;;;;;7379218;19;20027;-73
2023/05/06 09:29:23;;;;;;;11.57;3.15;;;21.70;88.80;;;;;;7377882;19;20006;-72
2023/05/06 09:31:51;;;;;;;11.48;3.13;;;21.80;88.40;;;;;;7381719;19;20013;-73
2023/05/06 09:34:21;;;;;;;13.45;3.47;;;21.80;89.10;;;;;;7380401;19;20292;-74
2023/05/06 09:36:56;;;;;;;14.00;3.22;;;21.80;88.60;;;;;;7379982;19;20007;-75
2023/05/06 09:39:27;;;;;;;12.75;3.35;;;21.80;88.50;;;;;;7400362;19;20015;-74
2023/05/06 09:41:56;;;;;;;;;;;21.90;87.20;;;;;;7379605;19;20043;-74
2023/05/06 09:44:25;;;;;;;11.23;2.97;;;21.90;87.00;;;;;;7380304;19;20291;-75
2023/05/06 09:46:54;;;;;;;13.13;3.05;;;21.90;87.80;;;;;;7387440;19;20020;-75
2023/05/06 09:49:25;;;;;;;7.07;2.60;;;22.00;87.80;;;;;;7387579;19;20018;-77
2023/05/06 09:51:57;;;;;;;10.65;3.30;;;22.00;87.70;;;;;;7387226;19;20015;-76
2023/05/06 09:54:26;;;;;;;8.23;2.67;;;22.10;87.40;;;;;;7419308;19;20010;-77
2023/05/06 09:56:57;;;;;;;14.27;3.05;;;22.10;85.30;;;;;;7394200;19;20526;-76
2023/05/06 09:59:28;;;;;;;12.35;2.53;;;22.20;85.30;;;;;;7386273;19;20007;-77
2023/05/06 10:01:58;;;;;;;12.90;2.67;;;22.20;85.30;;;;;;7385765;19;20034;-76
2023/05/06 10:04:28;;;;;;;11.77;2.88;;;22.10;84.70;;;;;;7386724;19;20014;-75
2023/05/06 10:07:02;;;;;;;14.20;2.63;;;22.20;84.00;;;;;;7386443;19;20011;-75
2023/05/06 10:09:32;;;;;;;17.23;3.03;;;22.20;84.40;;;;;;7405821;19;20017;-75
2023/05/06 10:12:02;;;;;;;9.15;2.30;;;22.30;84.90;;;;;;7385637;19;20010;-74
2023/05/06 10:14:31;;;;;;;5.43;2.03;;;22.20;84.40;;;;;;7385278;19;20007;-72
2023/05/06 10:17:01;;;;;;;11.27;2.70;;;22.30;83.70;;;;;;7386311;19;20030;-73
2023/05/06 10:19:31;;;;;;;7.68;2.00;;;22.30;83.70;;;;;;7388504;19;20006;-77
2023/05/06 10:22:09;;;;;;;6.72;1.90;;;22.30;84.00;;;;;;7385934;19;20015;-75
2023/05/06 10:24:47;;;;;;;9.35;1.88;;;22.40;82.50;;;;;;7385802;19;20009;-75
2023/05/06 10:27:17;;;;;;;7.10;1.70;;;22.30;83.00;;;;;;7404629;19;20019;-76
2023/05/06 10:29:46;;;;;;;8.05;2.20;;;22.40;81.80;;;;;;7383097;19;20062;-76
2023/05/06 10:32:14;;;;;;;8.85;2.22;;;22.40;81.30;;;;;;7386068;19;20373;-78
2023/05/06 10:34:54;;;;;;;13.07;2.10;;;22.50;81.30;;;;;;7384375;19;20002;-76
2023/05/06 10:37:29;;;;;;;14.55;2.45;;;22.60;81.10;;;;;;7385504;19;20011;-76
2023/05/06 10:39:59;;;;;;;5.75;1.90;;;22.50;80.80;;;;;;7383602;19;20024;-75
2023/05/06 10:42:29;;;;;;;8.75;2.00;;;22.50;80.60;;;;;;7407068;19;20019;-76
2023/05/06 10:44:59;;;;;;;9.50;2.05;;;22.40;81.30;;;;;;7384427;19;20250;-76
2023/05/06 10:47:28;;;;;;;11.95;2.65;;;22.70;80.00;;;;;;7385525;19;20027;-77
2023/05/06 10:50:19;;;;;;;6.43;2.03;;;22.60;79.40;;;;;;7385173;19;20015;-76
2023/05/06 10:52:55;;;;;;;6.75;2.25;;;22.50;80.60;;;;;;7385061;19;20007;-76
2023/05/06 10:55:29;;;;;;;9.02;2.35;;;22.50;81.30;;;;;;7385563;19;20027;-78
2023/05/06 10:58:01;;;;;;;11.88;2.17;;;22.50;82.50;;;;;;7385182;19;20014;-77
2023/05/06 11:00:33;;;;;;;10.35;2.42;;;22.50;82.20;;;;;;7406274;19;20002;-78
2023/05/06 11:03:08;;;;;;;7.90;2.40;;;22.50;82.20;;;;;;7385615;19;20010;-76
2023/05/06 11:05:50;;;;;;;8.13;2.13;;;22.70;82.50;;;;;;7384323;19;20011;-76
2023/05/06 11:08:26;;;;;;;7.85;2.20;;;22.70;82.20;;;;;;7385289;19;20006;-77
2023/05/06 11:10:56;;;;;;;7.82;2.35;;;22.80;82.30;;;;;;7388540;19;20002;-78
2023/05/06 11:13:26;;;;;;;8.15;2.20;;;22.90;82.20;;;;;;7386950;19;20059;-76
2023/05/06 11:15:56;;;;;;;9.43;2.47;;;22.90;82.30;;;;;;7385774;19;20360;-78
2023/05/06 11:18:45;;;;;;;8.60;2.30;;;23.00;81.60;;;;;;7408853;19;20283;-77
2023/05/06 11:21:41;;;;;;;4.75;2.05;;;23.00;80.00;;;;;;7387051;19;20003;-77
2023/05/06 11:24:14;;;;;;;7.18;2.20;;;23.00;80.50;;;;;;7388499;19;20019;-78
2023/05/06 11:26:44;;;;;;;9.05;2.20;;;23.10;80.60;;;;;;7385550;19;20021;-77
2023/05/06 11:29:13;;;;;;;3.95;1.80;;;23.20;80.40;;;;;;7384761;19;20272;-77
2023/05/06 11:31:44;;;;;;;5.78;1.60;;;23.20;79.70;;;;;;7363555;19;20021;-76
2023/05/06 11:34:14;;;;;;;7.43;1.85;;;23.30;79.20;;;;;;7404092;19;20006;-76
2023/05/06 11:36:53;;;;;;;8.68;1.95;;;23.40;76.30;;;;;;7383464;19;20007;-76
2023/05/06 11:39:28;;;;;;;5.28;1.77;;;23.30;76.90;;;;;;7382205;19;20401;-77
2023/05/06 11:41:58;;;;;;;7.65;1.83;;;23.20;77.50;;;;;;7382024;19;20002;-75
2023/05/06 11:44:32;;;;;;;9.27;1.90;;;23.30;78.20;;;;;;7382918;19;20006;-75
2023/05/06 11:47:04;;;;;;;9.82;2.20;;;23.30;79.40;;;;;;7380578;19;20003;-76
2023/05/06 11:49:37;;;;;;;6.85;1.90;;;23.30;79.90;;;;;;7383196;19;20010;-77
2023/05/06 11:52:06;;;;;;;5.15;1.70;;;23.30;79.40;;;;;;7404033;19;19998;-76
2023/05/06 11:54:41;;;;;;;6.95;1.90;;;23.30;77.90;;;;;;7385696;19;20032;-77
2023/05/06 11:57:11;;;;;;;6.30;1.80;;;23.40;77.50;;;;;;7382176;19;20034;-77
2023/05/06 11:59:41;;;;;;;6.32;1.38;;;23.50;77.20;;;;;;7382495;19;20013;-77
2023/05/06 12:02:11;;;;;;;5.97;1.60;;;23.60;77.20;;;;;;7385131;19;20015;-76
2023/05/06 12:04:41;;;;;;;10.63;2.07;;;23.80;77.60;;;;;;7385618;19;20236;-76
2023/05/06 12:07:11;;;;;;;8.20;1.80;;;23.90;77.70;;;;;;7401604;19;20670;-75
2023/05/06 12:09:45;;;;;;;4.97;1.80;;;24.00;76.90;;;;;;7383633;19;20011;-75
2023/05/06 12:12:17;;;;;;;5.68;1.80;;;24.10;76.40;;;;;;7383965;19;20010;-76
2023/05/06 12:14:48;;;;;;;6.63;1.73;;;24.10;75.90;;;;;;7383508;19;20006;-75
2023/05/06 12:17:17;;;;;;;6.07;1.85;;;24.10;75.50;;;;;;7382681;19;20023;-76
2023/05/06 12:19:45;;;;;;;10.85;1.58;;;24.10;75.40;;;;;;7382503;19;20027;-76
2023/05/06 12:22:23;;;;;;;7.75;1.95;;;24.20;75.90;;;;;;7402285;19;20007;-75
2023/05/06 12:24:54;;;;;;;6.68;1.50;;;24.30;75.40;;;;;;7382550;19;20006;-76
2023/05/06 12:27:33;;;;;;;8.02;1.50;;;24.30;74.40;;;;;;7382992;19;20055;-77
2023/05/06 12:30:03;;;;;;;5.85;1.48;;;24.40;73.00;;;;;;7382290;19;20003;-76
2023/05/06 12:32:33;;;;;;;6.28;1.65;;;24.40;73.00;;;;;;7383239;19;20003;-76
2023/05/06 12:35:06;;;;;;;6.90;1.88;;;24.50;72.70;;;;;;7382343;19;20070;-77
2023/05/06 12:37:34;;;;;;;7.20;1.63;;;24.60;71.40;;;;;;7381559;19;20007;-76
2023/05/06 12:40:06;;;;;;;7.30;1.90;;;24.60;70.80;;;;;;7406930;19;20379;-76
2023/05/06 12:42:35;;;;;;;5.35;1.48;;;24.50;71.50;;;;;;7382392;19;20234;-76
2023/05/06 12:45:16;;;;;;;7.57;1.70;;;24.30;72.70;;;;;;7381167;19;20030;-76
2023/05/06 12:47:55;;;;;;;7.15;1.98;;;24.30;72.70;;;;;;7380914;19;20002;-76
2023/05/06 12:50:35;;;;;;;8.30;1.70;;;24.30;71.70;;;;;;7384346;19;20007;-77
2023/05/06 12:53:04;;;;;;;5.80;1.40;;;24.30;72.20;;;;;;7383250;19;20015;-76
2023/05/06 12:55:38;;;;;;;6.60;1.73;;;24.30;72.70;;;;;;7380742;19;20349;-76
2023/05/06 12:58:17;;;;;;;10.68;1.80;;;24.30;72.50;;;;;;7402754;19;20014;-77
2023/05/06 13:00:46;;;;;;;8.18;1.85;;;24.30;72.70;;;;;;7380301;19;20102;-76